createdAt,value
2019-05-03T00:00:03.082Z,0.6
2019-05-03T00:10:03.165Z,0.4
2019-05-03T00:15:03.105Z,0.3
2019-05-03T00:25:08.694Z,0.1
2019-05-03T00:30:03.243Z,0.3
2019-05-03T00:35:02.278Z,0.5
2019-05-03T00:45:02.736Z,0.4
2019-05-03T00:50:03.180Z,0.4
2019-05-03T00:55:19.034Z,0.4
2019-05-03T01:00:02.675Z,0.2
2019-05-03T01:05:03.227Z,0.2
2019-05-03T01:10:03.136Z,0.3
2019-05-03T01:15:02.466Z,0.3
2019-05-03T01:20:03.264Z,0.1
2019-05-03T01:25:03.347Z,0.3
2019-05-03T01:30:03.362Z,0.3
2019-05-03T01:40:02.788Z,0.3
2019-05-03T01:45:02.337Z,0.4
2019-05-03T01:50:03.167Z,0.4
2019-05-03T01:55:03.707Z,0.4
2019-05-03T02:00:03.216Z,0.4
2019-05-03T02:05:02.922Z,0.3
2019-05-03T02:10:03.187Z,0.4
2019-05-03T02:15:02.883Z,0.4
2019-05-03T02:20:02.661Z,0.4
2019-05-03T02:30:03.742Z,0.6
2019-05-03T02:35:03.222Z,0.4
2019-05-03T02:45:00.979Z,0.4
2019-05-03T02:50:00.910Z,0.6
2019-05-03T02:55:00.921Z,0.4
2019-05-03T03:00:01.120Z,0.4
2019-05-03T03:05:01.042Z,0.4
2019-05-03T03:10:00.928Z,0.4
2019-05-03T03:15:00.983Z,0.2
2019-05-03T03:20:00.929Z,0.3
2019-05-03T03:25:01.049Z,0.4
2019-05-03T03:30:00.930Z,0.3
2019-05-03T03:35:13.299Z,0.5
2019-05-03T03:50:00.965Z,0.0
2019-05-03T03:55:01.066Z,0.0
2019-05-03T04:00:02.350Z,0.0
2019-05-03T04:05:00.971Z,0.0
2019-05-03T04:10:01.326Z,0.0
2019-05-03T04:15:01.089Z,0.0
2019-05-03T04:20:00.913Z,0.2
2019-05-03T04:25:01.044Z,0.2
2019-05-03T04:30:00.908Z,0.2
2019-05-03T04:35:00.940Z,0.2
2019-05-03T04:45:01.212Z,0.1
2019-05-03T04:50:00.938Z,0.1
2019-05-03T05:00:00.912Z,0.2
2019-05-03T05:05:00.986Z,0.2
2019-05-03T05:10:00.906Z,0.4
2019-05-03T05:15:01.045Z,0.6
2019-05-03T05:20:00.927Z,0.5
2019-05-03T05:25:01.046Z,0.5
2019-05-03T05:30:00.923Z,0.4
2019-05-03T05:35:01.015Z,0.4
2019-05-03T05:40:00.925Z,0.2
2019-05-03T05:45:00.934Z,0.2
2019-05-03T05:55:01.053Z,0.3
2019-05-03T06:00:00.930Z,0.3
2019-05-03T06:10:01.318Z,0.5
2019-05-03T06:15:01.005Z,0.6
2019-05-03T06:20:00.923Z,0.6
2019-05-03T06:25:02.159Z,0.5
2019-05-03T06:30:01.090Z,0.7
2019-05-03T06:35:01.071Z,0.5
2019-05-03T06:40:00.944Z,0.3
2019-05-03T06:45:12.058Z,0.3
2019-05-03T06:50:00.952Z,0.4
2019-05-03T06:55:10.978Z,0.2
2019-05-03T07:00:00.980Z,0.2
2019-05-03T07:10:01.079Z,0.2
2019-05-03T07:15:01.010Z,0.0
2019-05-03T07:20:00.946Z,0.0
2019-05-03T07:25:01.073Z,0.0
2019-05-03T07:30:00.948Z,0.0
2019-05-03T07:35:00.985Z,0.0
2019-05-03T07:45:01.019Z,0.0
2019-05-03T07:50:00.989Z,0.0
2019-05-03T08:00:01.033Z,0.0
2019-05-03T08:05:01.085Z,0.0
2019-05-03T08:10:00.956Z,0.0
2019-05-03T08:15:00.968Z,0.0
2019-05-03T08:20:01.490Z,0.0
2019-05-03T08:25:01.123Z,0.1
2019-05-03T08:30:00.967Z,0.1
2019-05-03T08:35:00.995Z,0.1
2019-05-03T08:40:00.943Z,0.1
2019-05-03T08:45:00.986Z,0.1
2019-05-03T08:50:00.976Z,0.1
2019-05-03T08:55:01.041Z,0.1
2019-05-03T09:00:01.012Z,0.1
2019-05-03T09:05:01.238Z,0.3
2019-05-03T09:10:00.983Z,0.3
2019-05-03T09:15:01.152Z,0.2
2019-05-03T09:20:01.013Z,0.2
2019-05-03T09:30:01.056Z,0.3
2019-05-03T09:40:01.065Z,0.4
2019-05-03T09:45:01.019Z,0.4
2019-05-03T09:55:01.056Z,0.3
2019-05-03T10:00:01.036Z,0.2
2019-05-03T10:05:01.010Z,0.4
2019-05-03T10:10:01.015Z,0.5
2019-05-03T10:15:01.010Z,0.7
2019-05-03T10:25:01.075Z,0.7
2019-05-03T10:30:17.111Z,0.5
2019-05-03T10:40:01.084Z,0.5
2019-05-03T10:45:01.104Z,0.3
2019-05-03T10:55:01.058Z,0.6
2019-05-03T11:00:01.058Z,0.4
2019-05-03T11:05:01.031Z,0.4
2019-05-03T11:10:01.032Z,0.6
2019-05-03T11:15:03.066Z,0.6
2019-05-03T11:20:01.041Z,0.4
2019-05-03T11:30:01.197Z,0.5
2019-05-03T11:35:01.170Z,0.5
2019-05-03T11:40:01.043Z,0.6
2019-05-03T11:45:01.116Z,0.8
2019-05-03T11:55:01.128Z,1.0
2019-05-03T12:00:01.109Z,1.0
2019-05-03T12:05:01.178Z,1.0
2019-05-03T12:15:01.130Z,1.2
2019-05-03T12:25:09.716Z,1.0
2019-05-03T12:30:01.064Z,1.0
2019-05-03T12:35:01.215Z,1.0
2019-05-03T12:40:01.097Z,0.8
2019-05-03T12:45:01.166Z,0.8
2019-05-03T12:50:01.090Z,1.0
2019-05-03T12:55:01.166Z,1.0
2019-05-03T13:00:01.117Z,1.0
2019-05-03T13:05:01.072Z,1.0
2019-05-03T13:10:01.060Z,1.0
2019-05-03T13:15:01.200Z,1.1
2019-05-03T13:20:01.116Z,1.1
2019-05-03T13:25:01.140Z,1.1
2019-05-03T13:30:01.079Z,1.1
2019-05-03T13:40:01.147Z,1.2
2019-05-03T13:45:05.196Z,1.2
2019-05-03T13:50:01.112Z,1.2
2019-05-03T13:55:01.177Z,1.0
2019-05-03T14:00:01.112Z,1.0
2019-05-03T14:05:01.236Z,1.0
2019-05-03T14:10:01.179Z,1.0
2019-05-03T14:15:01.184Z,1.0
2019-05-03T14:25:01.251Z,1.3
2019-05-03T14:30:01.275Z,1.5
2019-05-03T14:35:01.377Z,1.5
2019-05-03T14:40:01.142Z,1.6
2019-05-03T14:45:01.198Z,1.9
2019-05-03T14:50:01.115Z,1.7
2019-05-03T14:55:01.106Z,1.7
2019-05-03T15:00:01.114Z,1.9
2019-05-03T15:05:02.129Z,1.8
2019-05-03T15:10:01.104Z,1.6
2019-05-03T15:15:01.118Z,1.5
2019-05-03T15:20:01.138Z,1.9
2019-05-03T15:25:01.110Z,2.0
2019-05-03T15:30:01.114Z,2.2
2019-05-03T15:40:01.124Z,2.5
2019-05-03T15:45:01.259Z,2.1
2019-05-03T15:50:01.121Z,1.8
2019-05-03T15:55:01.123Z,1.6
2019-05-03T16:00:01.129Z,1.4
2019-05-03T16:05:01.215Z,1.2
2019-05-03T16:10:01.129Z,1.0
2019-05-03T16:15:01.132Z,1.0
2019-05-03T16:20:01.425Z,1.0
2019-05-03T16:25:01.230Z,1.0
2019-05-03T16:30:01.167Z,1.0
2019-05-03T16:40:01.241Z,1.1
2019-05-03T16:45:01.300Z,1.0
2019-05-03T16:50:06.838Z,0.8
2019-05-03T16:55:01.245Z,0.6
2019-05-03T17:00:01.246Z,0.3
2019-05-03T17:05:07.756Z,0.1
2019-05-03T17:10:01.153Z,0.0
2019-05-03T17:15:01.214Z,0.0
2019-05-03T17:20:01.164Z,0.0
2019-05-03T17:25:01.282Z,0.0
2019-05-03T17:30:01.180Z,0.0
2019-05-03T17:40:01.621Z,0.2
2019-05-03T17:45:01.548Z,0.2
2019-05-03T17:50:01.231Z,0.2
2019-05-03T17:55:01.293Z,0.4
2019-05-03T18:00:01.169Z,0.3
2019-05-03T18:05:01.177Z,0.3
2019-05-03T18:10:01.174Z,0.5
2019-05-03T18:15:01.236Z,0.5
2019-05-03T18:20:01.172Z,0.3
2019-05-03T18:25:01.298Z,0.5
2019-05-03T18:30:01.306Z,0.4
2019-05-03T18:35:01.260Z,0.2
2019-05-03T18:40:01.200Z,0.4
2019-05-03T18:45:06.260Z,0.4
2019-05-03T18:50:01.183Z,0.3
2019-05-03T18:55:01.310Z,0.3
2019-05-03T19:00:01.191Z,0.3
2019-05-03T19:05:06.321Z,0.1
2019-05-03T19:15:06.327Z,0.0
2019-05-03T19:25:01.323Z,0.1
2019-05-03T19:30:01.207Z,0.1
2019-05-03T19:35:01.265Z,0.3
2019-05-03T19:40:01.193Z,0.3
2019-05-03T19:45:06.405Z,0.2
2019-05-03T19:50:01.232Z,0.4
2019-05-03T19:55:01.263Z,0.4
2019-05-03T20:00:01.210Z,0.2
2019-05-03T20:05:01.415Z,0.2
2019-05-03T20:10:01.991Z,0.2
2019-05-03T20:15:06.280Z,0.0
2019-05-03T20:20:01.252Z,0.0
2019-05-03T20:25:01.369Z,0.0
2019-05-03T20:30:01.233Z,0.0
2019-05-03T20:40:01.192Z,0.2
2019-05-03T20:45:01.289Z,0.2
2019-05-03T20:50:01.225Z,0.2
2019-05-03T21:00:04.708Z,0.0
2019-05-03T21:10:01.294Z,0.0
2019-05-03T21:15:01.303Z,0.0
2019-05-03T21:20:01.270Z,0.0
2019-05-03T21:25:01.307Z,0.0
2019-05-03T21:30:01.258Z,0.0
2019-05-03T21:35:01.374Z,0.0
2019-05-03T21:40:01.248Z,0.0
2019-05-03T21:45:01.314Z,0.0
2019-05-03T21:50:06.291Z,0.0
2019-05-03T21:55:01.311Z,0.0
2019-05-03T22:00:01.261Z,0.0
2019-05-03T22:05:01.373Z,0.0
2019-05-03T22:10:01.289Z,0.0
2019-05-03T22:15:01.283Z,0.0
2019-05-03T22:20:01.288Z,0.0
2019-05-03T22:25:01.329Z,0.0
2019-05-03T22:30:01.269Z,0.0
2019-05-03T22:35:01.367Z,0.0
2019-05-03T22:45:01.339Z,0.0
2019-05-03T22:50:01.261Z,0.0
2019-05-03T22:55:01.336Z,0.0
2019-05-03T23:00:01.274Z,0.0
2019-05-03T23:15:01.284Z,0.0
2019-05-03T23:25:01.377Z,0.0
2019-05-03T23:30:06.321Z,0.0
2019-05-03T23:35:01.412Z,0.0
2019-05-03T23:40:01.333Z,0.0
2019-05-03T23:45:06.431Z,0.0
2019-05-03T23:55:01.364Z,0.0
